Time;durP1;ratioP1;P1;durP2;ratioP2;P2;SDS_P1;SDS_P2;PMS_P1;PMS_P2;Temp;Humidity;BMP_temperature;BMP_pressure;BME280_temperature;BME280_humidity;BME280_pressure;Samples;Min_cycle;Max_cycle;Signal;HPM_P1;HPM_P2
2022/10/27 00:01:34;;;;;;;;;71.33;53.33;;;;;10.40;100.00;100536.38;6264542;20;3644014;-69
2022/10/27 00:04:04;;;;;;;;;64.00;50.33;;;;;10.32;100.00;100544.78;6299620;20;3624426;-70
2022/10/27 00:06:34;;;;;;;;;67.25;51.50;;;;;10.18;100.00;100542.72;6304262;20;3644000;-69
2022/10/27 00:09:03;;;;;;;;;68.00;53.67;;;;;10.50;100.00;100553.78;6306947;20;3611761;-70
2022/10/27 00:11:32;;;;;;;;;60.00;45.33;;;;;10.40;100.00;100557.84;6268092;20;3619008;-69
2022/10/27 00:14:02;;;;;;;;;61.00;47.00;;;;;10.15;100.00;100548.22;6302166;20;3626352;-69
2022/10/27 00:16:32;;;;;;;;;56.67;47.00;;;;;9.90;100.00;100540.44;6301631;20;3618579;-69
2022/10/27 00:19:02;;;;;;;;;57.33;45.67;;;;;10.16;100.00;100549.97;6301345;20;3615920;-70
2022/10/27 00:21:31;;;;;;;;;56.33;43.00;;;;;10.23;100.00;100555.94;6302333;20;3622152;-69
2022/10/27 00:24:01;;;;;;;;;55.67;43.33;;;;;10.19;100.00;100549.84;6301618;20;3623246;-69
2022/10/27 00:26:30;;;;;;;;;59.33;45.33;;;;;10.41;100.00;100559.63;6297148;20;3628491;-69
2022/10/27 00:28:59;;;;;;;;;57.00;47.00;;;;;10.25;100.00;100559.44;6301562;20;3438800;-70
2022/10/27 00:31:28;;;;;;;;;64.00;48.00;;;;;10.29;100.00;100561.94;6299162;20;3654403;-70
2022/10/27 00:33:57;;;;;;;;;57.33;44.33;;;;;10.25;100.00;100559.44;6266955;20;3630539;-70
2022/10/27 00:36:27;;;;;;;;;62.00;48.00;;;;;10.29;100.00;100550.31;6301637;20;3627426;-71
2022/10/27 00:38:59;;;;;;;;;65.00;49.67;;;;;10.40;100.00;100566.81;6266004;20;3630522;-70
2022/10/27 00:41:41;;;;;;;;;63.00;48.00;;;;;10.25;100.00;100560.28;6296785;20;3637751;-69
2022/10/27 00:44:43;;;;;;;;;61.67;47.33;;;;;10.44;100.00;100572.88;6266331;20;3627445;-70
2022/10/27 00:47:33;;;;;;;;;59.67;48.33;;;;;10.68;100.00;100573.53;6296508;20;3623149;-69
2022/10/27 00:50:15;;;;;;;;;56.00;45.33;;;;;10.49;100.00;100578.91;6300427;20;2841981;-70
2022/10/27 00:52:52;;;;;;;;;51.33;39.00;;;;;10.42;100.00;100582.81;6298442;20;3605442;-69
2022/10/27 00:55:34;;;;;;;;;51.00;40.67;;;;;10.44;100.00;100586.31;6299599;20;3616983;-69
2022/10/27 00:58:10;;;;;;;;;52.67;44.00;;;;;10.37;100.00;100572.28;6268273;20;2867072;-69
2022/10/27 01:00:41;;;;;;;;;51.67;40.33;;;;;10.42;100.00;100582.81;6299806;20;2853412;-70
2022/10/27 01:03:16;;;;;;;;;54.67;44.00;;;;;10.50;100.00;100592.25;6297898;20;3614906;-69
2022/10/27 01:05:46;;;;;;;;;52.00;42.00;;;;;10.55;100.00;100590.22;6300772;20;3614816;-69
2022/10/27 01:08:16;;;;;;;;;53.33;43.00;;;;;10.58;100.00;100593.72;6299248;20;3616985;-70
2022/10/27 01:10:46;;;;;;;;;58.67;43.33;;;;;10.74;100.00;100592.03;6304444;20;3624236;-69
2022/10/27 01:13:17;;;;;;;;;54.33;45.33;;;;;10.66;100.00;100581.66;6303649;20;3631508;-69
2022/10/27 01:16:21;;;;;;;;;55.00;43.67;;;;;10.82;100.00;100586.31;6306005;20;3621202;-69
2022/10/27 01:19:27;;;;;;;;;57.33;42.67;;;;;10.77;100.00;100587.41;6303721;20;3645083;-68
2022/10/27 01:22:11;;;;;;;;;53.67;41.67;;;;;10.91;100.00;100580.50;6304808;20;3629446;-69
2022/10/27 01:25:31;;;;;;;;;51.00;41.67;;;;;10.90;100.00;100576.94;6306723;20;3601357;-69
2022/10/27 01:28:50;;;;;;;;;55.00;44.00;;;;;10.74;100.00;100590.25;6306838;20;3624246;-69
2022/10/27 01:31:29;;;;;;;;;61.00;46.67;;;;;10.84;100.00;100584.41;6273005;20;3622184;-71
2022/10/27 01:34:15;;;;;;;;;61.33;44.67;;;;;10.79;100.00;100589.13;6304930;20;3628487;-70
2022/10/27 01:37:26;;;;;;;;;58.33;45.33;;;;;10.77;100.00;100589.22;6307667;20;3626304;-70
2022/10/27 01:40:20;;;;;;;;;57.33;47.33;;;;;10.47;100.00;100592.41;6272988;20;3623176;-70
2022/10/27 01:43:05;;;;;;;;;57.67;45.67;;;;;10.64;100.00;100594.31;6270684;20;3613915;-69
2022/10/27 01:45:38;;;;;;;;;54.00;42.33;;;;;10.50;100.00;100591.38;6303555;20;3609614;-70
2022/10/27 01:48:10;;;;;;;;;51.00;40.33;;;;;10.42;100.00;100585.50;6301301;20;2864995;-70
2022/10/27 01:50:42;;;;;;;;;52.67;43.67;;;;;10.23;100.00;100594.38;6305582;20;3614812;-70
2022/10/27 01:53:35;;;;;;;;;56.00;44.33;;;;;10.45;100.00;100602.38;6272156;20;3613824;-70
2022/10/27 01:56:09;;;;;;;;;54.67;42.67;;;;;10.57;100.00;100600.91;6302779;20;3618985;-70
2022/10/27 01:59:43;;;;;;;;;53.67;41.00;;;;;10.52;100.00;100611.00;6302364;20;2862898;-70
2022/10/27 02:02:39;;;;;;;;;56.33;44.00;;;;;10.62;100.00;100612.31;6301977;20;3613864;-70
2022/10/27 02:05:21;;;;;;;;;59.00;42.75;;;;;10.66;100.00;100618.38;6306179;20;3645179;-70
2022/10/27 02:08:20;;;;;;;;;55.00;43.00;;;;;10.76;100.00;100617.00;6302040;20;3611726;-70
2022/10/27 02:11:04;;;;;;;;;55.75;43.25;;;;;10.81;100.00;100614.13;6304558;20;3637836;-70
2022/10/27 02:13:41;;;;;;;;;51.67;41.00;;;;;10.82;100.00;100614.06;6304039;20;3593631;-70
2022/10/27 02:16:22;;;;;;;;;59.00;46.00;;;;;10.83;100.00;100620.28;6269678;20;3631585;-70
2022/10/27 02:19:04;;;;;;;;;59.67;46.00;;;;;10.83;100.00;100605.03;6301155;20;3625289;-70
2022/10/27 02:21:37;;;;;;;;;51.25;41.50;;;;;10.97;100.00;100607.06;6303942;20;3615001;-70
2022/10/27 02:24:07;;;;;;;;;53.33;41.00;;;;;10.94;100.00;100612.59;6304366;20;3608763;-69
2022/10/27 02:27:07;;;;;;;;;54.67;42.67;;;;;10.89;100.00;100612.78;6308786;20;3615749;-70
2022/10/27 02:29:52;;;;;;;;;61.75;44.00;;;;;10.95;100.00;100612.53;6275249;20;4398163;-69
2022/10/27 02:32:24;;;;;;;;;55.00;43.00;;;;;10.89;100.00;100603.88;6300921;20;3640908;-69
2022/10/27 02:34:53;;;;;;;;;57.25;45.00;;;;;10.87;100.00;100611.13;6304942;20;3633906;-70
2022/10/27 02:37:38;;;;;;;;;57.33;44.00;;;;;10.82;100.00;100613.16;6300586;20;3635726;-70
2022/10/27 02:40:09;;;;;;;;;59.50;45.50;;;;;10.81;100.00;100611.44;6307124;20;3638886;-69
2022/10/27 02:42:38;;;;;;;;;59.25;44.25;;;;;10.74;100.00;100621.59;6305369;20;3631534;-69
2022/10/27 02:45:08;;;;;;;;;55.00;42.00;;;;;10.77;100.00;100627.69;6306124;20;3627380;-70
2022/10/27 02:47:38;;;;;;;;;50.33;40.00;;;;;10.71;100.00;100627.97;6300124;20;3614843;-70
2022/10/27 02:50:08;;;;;;;;;53.33;41.33;;;;;10.66;100.00;100624.63;6304436;20;3603424;-70
2022/10/27 02:52:38;;;;;;;;;51.67;40.33;;;;;10.59;100.00;100628.56;6304003;20;2851455;-70
2022/10/27 02:55:08;;;;;;;;;50.67;40.33;;;;;10.53;100.00;100629.72;6301905;20;2856696;-70
2022/10/27 02:57:38;;;;;;;;;51.67;40.67;;;;;10.64;100.00;100625.69;6305278;20;3600385;-69
2022/10/27 03:00:08;;;;;;;;;52.67;41.00;;;;;10.55;100.00;100629.63;6305758;20;3617005;-70
2022/10/27 03:02:38;;;;;;;;;48.00;38.00;;;;;10.62;100.00;100633.78;6302767;20;2840987;-69
2022/10/27 03:05:07;;;;;;;;;49.00;38.67;;;;;10.54;100.00;100635.97;6304372;20;2875871;-70
2022/10/27 03:07:36;;;;;;;;;54.33;42.67;;;;;10.56;100.00;100634.09;6303975;20;3596095;-70
2022/10/27 03:10:06;;;;;;;;;51.00;39.33;;;;;10.42;100.00;100636.50;6273792;20;3601276;-70
2022/10/27 03:12:36;;;;;;;;;51.00;41.00;;;;;10.38;100.00;100633.09;6302754;20;2863446;-70
2022/10/27 03:15:07;;;;;;;;;48.67;39.67;;;;;10.58;100.00;100645.59;6303512;20;3614194;-70
2022/10/27 03:17:35;;;;;;;;;46.00;38.50;;;;;10.48;100.00;100638.94;6271250;20;2840887;-69
2022/10/27 03:20:05;;;;;;;;;40.00;34.00;;;;;10.41;100.00;100646.38;6269602;20;2843064;-70
2022/10/27 03:22:37;;;;;;;;;50.00;38.50;;;;;10.38;100.00;100645.66;6272808;20;2852343;-69
2022/10/27 03:25:10;;;;;;;;;50.00;38.33;;;;;10.25;100.00;100656.03;6271086;20;2867101;-69
2022/10/27 03:27:42;;;;;;;;;51.33;41.00;;;;;10.27;100.00;100655.06;6303789;20;3620087;-68
2022/10/27 03:30:17;;;;;;;;;53.67;42.00;;;;;10.27;100.00;100656.84;6272120;20;3616082;-69
2022/10/27 03:32:52;;;;;;;;;49.67;37.33;;;;;10.28;100.00;100647.88;6299347;20;2856633;-70
2022/10/27 03:35:22;;;;;;;;;52.00;41.00;;;;;10.40;100.00;100659.88;6300222;20;3609683;-69
2022/10/27 03:38:00;;;;;;;;;50.00;34.67;;;;;10.41;100.00;100661.63;6299198;20;3604591;-69
2022/10/27 03:40:29;;;;;;;;;44.00;35.33;;;;;10.41;100.00;100653.56;6307046;20;3592969;-70
2022/10/27 03:42:58;;;;;;;;;46.50;36.50;;;;;10.46;100.00;100665.84;6268491;20;2855592;-70
2022/10/27 03:45:28;;;;;;;;;48.00;36.00;;;;;10.45;100.00;100649.78;6273080;20;3604422;-70
2022/10/27 03:48:09;;;;;;;;;53.25;40.50;;;;;10.38;100.00;100656.41;6301753;20;3637779;-70
2022/10/27 03:50:39;;;;;;;;;49.33;38.00;;;;;10.40;100.00;100659.88;6302444;20;3612752;-69
2022/10/27 03:53:09;;;;;;;;;41.67;35.00;;;;;10.56;100.00;100660.94;6269855;20;3577490;-70
2022/10/27 03:55:39;;;;;;;;;48.50;37.50;;;;;10.32;100.00;100666.47;6269481;20;2855645;-70
2022/10/27 03:58:13;;;;;;;;;43.00;37.00;;;;;10.40;100.00;100662.56;6302100;20;2848203;-70
2022/10/27 04:00:47;;;;;;;;;49.67;38.67;;;;;10.37;100.00;100660.00;6268967;20;2860743;-70
2022/10/27 04:03:16;;;;;;;;;40.67;34.00;;;;;10.35;100.00;100668.16;6304456;20;3608715;-69
2022/10/27 04:05:49;;;;;;;;;47.00;39.50;;;;;10.27;100.00;100671.19;6271658;20;2860805;-70
2022/10/27 04:08:18;;;;;;;;;50.33;41.33;;;;;10.29;100.00;100673.78;6270151;20;3604439;-69
2022/10/27 04:10:47;;;;;;;;;48.33;38.00;;;;;10.22;100.00;100672.28;6274580;20;2864862;-69
2022/10/27 04:13:17;;;;;;;;;49.67;39.00;;;;;10.30;100.00;100680.91;6303807;20;2863929;-69
2022/10/27 04:15:46;;;;;;;;;54.33;38.67;;;;;10.40;100.00;100670.59;6301251;20;3639925;-70
2022/10/27 04:18:15;;;;;;;;;56.67;42.33;;;;;10.41;100.00;100680.41;6308121;20;3623313;-70
2022/10/27 04:20:44;;;;;;;;;60.00;45.33;;;;;10.39;100.00;100679.63;6270899;20;3618001;-70
2022/10/27 04:23:14;;;;;;;;;75.25;56.75;;;;;10.39;100.00;100674.25;6305065;20;4398186;-70
2022/10/27 04:25:44;;;;;;;;;76.00;56.50;;;;;10.29;100.00;100680.03;6307645;20;4395156;-70
2022/10/27 04:28:14;;;;;;;;;64.33;50.00;;;;;10.28;100.00;100690.81;6300203;20;3624270;-70
2022/10/27 04:30:43;;;;;;;;;67.33;50.00;;;;;10.23;100.00;100663.28;6300569;20;3643019;-70
2022/10/27 04:33:13;;;;;;;;;76.67;57.33;;;;;10.44;100.00;100680.28;6270568;20;3651381;-70
2022/10/27 04:35:42;;;;;;;;;72.67;54.67;;;;;10.50;100.00;100688.03;6269134;20;3643012;-69
2022/10/27 04:38:12;;;;;;;;;82.25;65.50;;;;;10.54;100.00;100679.78;6304996;20;4427379;-70
2022/10/27 04:40:41;;;;;;;;;77.75;58.00;;;;;10.35;100.00;100678.88;6304388;20;3651447;-70
2022/10/27 04:43:10;;;;;;;;;67.00;52.00;;;;;10.28;100.00;100689.00;6302274;20;3624371;-70
2022/10/27 04:45:41;;;;;;;;;76.33;62.33;;;;;10.38;100.00;100685.94;6268283;20;3638252;-70
2022/10/27 04:48:11;;;;;;;;;61.00;47.67;;;;;10.32;100.00;100689.72;6298958;20;3616978;-70
2022/10/27 04:50:40;;;;;;;;;49.00;36.00;;;;;10.46;100.00;100697.19;6300522;20;3608663;-69
2022/10/27 04:53:10;;;;;;;;;52.00;38.67;;;;;10.40;100.00;100698.34;6303530;20;3613777;-70
2022/10/27 04:55:39;;;;;;;;;52.33;41.67;;;;;10.43;100.00;100705.41;6299661;20;3615849;-70
2022/10/27 04:58:08;;;;;;;;;45.00;35.33;;;;;10.38;100.00;100705.59;6301294;20;3588804;-70
2022/10/27 05:00:38;;;;;;;;;41.67;35.67;;;;;10.53;100.00;100709.38;6298120;20;2842034;-71
2022/10/27 05:03:09;;;;;;;;;49.33;36.67;;;;;10.44;100.00;100704.44;6302940;20;3607591;-70
2022/10/27 05:05:38;;;;;;;;;54.00;39.67;;;;;10.54;100.00;100711.16;6300489;20;3637853;-70
2022/10/27 05:08:10;;;;;;;;;57.00;42.33;;;;;10.39;100.00;100707.31;6300496;20;3622170;-71
2022/10/27 05:10:40;;;;;;;;;58.67;45.33;;;;;10.55;100.00;100711.06;6300916;20;3633710;-70
2022/10/27 05:13:10;;;;;;;;;65.33;49.67;;;;;10.56;100.00;100711.97;6303823;20;3637797;-70
2022/10/27 05:15:38;;;;;;;;;70.67;51.00;;;;;10.63;100.00;100715.22;6299651;20;3621103;-69
2022/10/27 05:18:08;;;;;;;;;64.00;47.67;;;;;10.65;100.00;100722.28;6269359;20;3633594;-70
2022/10/27 05:20:39;;;;;;;;;66.33;50.67;;;;;10.60;100.00;100731.47;6300071;20;3627449;-71
2022/10/27 05:23:08;;;;;;;;;64.67;45.00;;;;;10.60;100.00;100737.72;6298295;20;3661737;-71
2022/10/27 05:25:38;;;;;;;;;52.67;41.00;;;;;10.67;100.00;100733.81;6266281;20;3621105;-71
2022/10/27 05:28:10;;;;;;;;;40.00;34.00;;;;;10.60;100.00;100735.03;6302663;20;3599238;-71
2022/10/27 05:30:39;;;;;;;;;46.67;38.67;;;;;10.57;100.00;100742.38;6271219;20;2859688;-71
2022/10/27 05:33:08;;;;;;;;;50.67;40.67;;;;;10.72;100.00;100742.53;6301538;20;3620054;-71
2022/10/27 05:35:37;;;;;;;;;51.00;38.00;;;;;10.82;100.00;100736.75;6269657;20;3621073;-71
2022/10/27 05:38:06;;;;;;;;;47.33;38.67;;;;;10.85;100.00;100726.75;6304813;20;3612801;-71
2022/10/27 05:40:36;;;;;;;;;57.33;42.33;;;;;10.81;100.00;100732.31;6270508;20;3632587;-71
2022/10/27 05:43:05;;;;;;;;;47.67;39.67;;;;;10.88;100.00;100731.97;6300173;20;2853431;-70
2022/10/27 05:45:36;;;;;;;;;50.67;41.00;;;;;10.96;100.00;100745.06;6299324;20;3613826;-71
2022/10/27 05:48:08;;;;;;;;;51.33;42.33;;;;;10.96;100.00;100735.19;6302694;20;3605872;-72
2022/10/27 05:50:38;;;;;;;;;46.00;37.67;;;;;11.07;100.00;100748.09;6268799;20;2852489;-71
2022/10/27 05:53:07;;;;;;;;;54.67;43.33;;;;;11.05;100.00;100749.13;6300507;20;3632546;-71
2022/10/27 05:55:37;;;;;;;;;56.67;44.67;;;;;11.07;100.00;100760.69;6303272;20;3632573;-70
2022/10/27 05:58:06;;;;;;;;;45.50;39.00;;;;;11.11;100.00;100752.41;6305751;20;2849270;-70
2022/10/27 06:00:38;;;;;;;;;76.67;57.00;;;;;11.32;100.00;100747.84;6272255;20;3638891;-72
2022/10/27 06:03:20;;;;;;;;;82.67;61.33;;;;;11.07;100.00;100756.16;6304197;20;3681592;-72
2022/10/27 06:05:51;;;;;;;;;68.00;52.67;;;;;11.08;100.00;100775.84;6274738;20;3611762;-72
2022/10/27 06:08:21;;;;;;;;;56.33;44.00;;;;;11.27;100.00;100766.00;6303478;20;3625248;-71
2022/10/27 06:10:52;;;;;;;;;53.63;42.50;;;;;11.15;100.00;100770.13;6328876;20;3639896;-72
2022/10/27 06:13:22;;;;;;;;;56.33;43.00;;;;;11.30;100.00;100775.75;6273992;20;3643998;-71
2022/10/27 06:15:52;;;;;;;;;45.33;37.00;;;;;11.24;100.00;100789.44;6306099;20;3599210;-70
2022/10/27 06:18:21;;;;;;;;;50.00;38.33;;;;;11.30;100.00;100794.56;6304150;20;3599383;-71
2022/10/27 06:20:50;;;;;;;;;50.00;39.00;;;;;11.31;100.00;100799.84;6308048;20;3603468;-71
2022/10/27 06:23:20;;;;;;;;;55.67;41.67;;;;;11.35;100.00;100797.91;6273805;20;3635719;-71
2022/10/27 06:25:49;;;;;;;;;49.00;35.00;;;;;11.35;100.00;100796.09;6305116;20;3626368;-71
2022/10/27 06:28:18;;;;;;;;;48.67;37.33;;;;;11.36;100.00;100805.03;6308583;20;3615952;-71
2022/10/27 06:30:47;;;;;;;;;48.33;37.00;;;;;11.37;100.00;100804.06;6271136;20;2881592;-72
2022/10/27 06:33:16;;;;;;;;;51.00;40.00;;;;;11.28;100.00;100809.88;6306726;20;3598322;-72
2022/10/27 06:35:46;;;;;;;;;47.33;38.00;;;;;11.27;100.00;100802.75;6273289;20;2845242;-71
2022/10/27 06:38:16;;;;;;;;;50.00;36.67;;;;;11.25;100.00;100799.28;6305185;20;3616952;-71
2022/10/27 06:40:45;;;;;;;;;47.50;36.50;;;;;11.43;100.00;100803.78;6306387;20;2862938;-71
2022/10/27 06:43:15;;;;;;;;;45.33;38.00;;;;;11.46;100.00;100809.03;6275588;20;2854498;-73
2022/10/27 06:45:48;;;;;;;;;49.67;36.00;;;;;11.37;100.00;100793.31;6302945;20;2866025;-71
2022/10/27 06:48:18;;;;;;;;;53.67;39.67;;;;;11.34;100.00;100804.22;6303837;20;3630491;-71
2022/10/27 06:50:47;;;;;;;;;53.00;41.00;;;;;11.37;100.00;100804.06;6309906;20;3610723;-71
2022/10/27 06:53:16;;;;;;;;;46.33;37.67;;;;;11.47;100.00;100809.88;6275003;20;3600413;-71
2022/10/27 06:55:45;;;;;;;;;51.67;38.33;;;;;11.40;100.00;100810.19;6304830;20;3628375;-72
2022/10/27 06:58:15;;;;;;;;;48.00;38.00;;;;;11.48;100.00;100811.63;6270263;20;3606540;-72
2022/10/27 07:00:44;;;;;;;;;46.33;39.67;;;;;11.55;100.00;100819.34;6304031;20;3599337;-72
2022/10/27 07:03:14;;;;;;;;;49.33;38.00;;;;;11.61;100.00;100813.69;6302911;20;3617027;-70
2022/10/27 07:05:42;;;;;;;;;33.33;27.33;;;;;11.47;100.00;100818.81;6307423;20;3593083;-70
2022/10/27 07:08:11;;;;;;;;;44.50;36.50;;;;;11.63;100.00;100827.91;6271115;20;2850278;-71
2022/10/27 07:10:41;;;;;;;;;49.33;37.67;;;;;11.83;100.00;100820.72;6273075;20;2888882;-74
2022/10/27 07:13:10;;;;;;;;;50.00;41.00;;;;;11.79;100.00;100821.78;6307755;20;3601325;-73
2022/10/27 07:15:39;;;;;;;;;49.33;36.67;;;;;11.84;100.00;100831.38;6307960;20;3613767;-73
2022/10/27 07:18:10;;;;;;;;;47.33;38.00;;;;;11.92;100.00;100828.34;6271571;20;3604397;-74
2022/10/27 07:20:39;;;;;;;;;43.00;34.33;;;;;11.94;100.00;100834.53;6307587;20;3587848;-74
2022/10/27 07:23:10;;;;;;;;;44.00;36.00;;;;;11.91;100.00;100840.06;6272739;20;2851338;-72
2022/10/27 07:25:40;;;;;;;;;49.67;38.00;;;;;11.77;100.00;100834.44;6272941;20;3611710;-71
2022/10/27 07:28:09;;;;;;;;;43.00;36.00;;;;;11.72;100.00;100833.81;6302600;20;2848262;-74
2022/10/27 07:30:43;;;;;;;;;53.67;39.33;;;;;11.81;100.00;100847.69;6308008;20;3632627;-74
2022/10/27 07:33:13;;;;;;;;;41.00;34.33;;;;;11.84;100.00;100838.59;6277581;20;3606615;-72
2022/10/27 07:35:41;;;;;;;;;46.50;37.50;;;;;12.07;100.00;100854.53;6271841;20;2850310;-71
2022/10/27 07:38:11;;;;;;;;;50.33;37.33;;;;;11.95;100.00;100857.81;6271450;20;3629433;-71
2022/10/27 07:40:40;;;;;;;;;42.67;35.33;;;;;12.04;100.00;100870.84;6304173;20;2840876;-71
2022/10/27 07:43:10;;;;;;;;;44.00;35.33;;;;;11.98;100.00;100865.75;6305238;20;2855592;-71
2022/10/27 07:45:42;;;;;;;;;45.00;34.00;;;;;11.83;100.00;100871.84;6302619;20;3615934;-72
2022/10/27 07:48:15;;;;;;;;;75.75;58.00;;;;;11.82;100.00;100880.84;6273399;20;4397243;-72
2022/10/27 07:50:44;;;;;;;;;49.67;39.67;;;;;11.86;100.00;100869.91;6309060;20;3614867;-71
2022/10/27 07:53:15;;;;;;;;;47.00;34.00;;;;;11.88;100.00;100874.34;6275235;20;2863897;-72
2022/10/27 07:55:44;;;;;;;;;41.33;35.00;;;;;11.88;100.00;100877.03;6304335;20;2849261;-72
2022/10/27 07:58:16;;;;;;;;;48.00;37.67;;;;;11.84;100.00;100876.25;6307015;20;3601415;-71
2022/10/27 08:00:47;;;;;;;;;55.67;43.00;;;;;11.94;100.00;100885.69;6273620;20;3630524;-71
2022/10/27 08:03:29;;;;;;;;;50.00;37.00;;;;;11.92;100.00;100886.69;6308971;20;3608729;-71
2022/10/27 08:06:02;;;;;;;;;46.00;36.33;;;;;11.86;100.00;100893.25;6275646;20;3600260;-72
2022/10/27 08:08:32;;;;;;;;;45.00;36.67;;;;;12.06;100.00;100895.88;6275841;20;2848277;-73
2022/10/27 08:11:01;;;;;;;;;40.00;33.00;;;;;11.99;100.00;100901.63;6311158;20;2727442;-73
2022/10/27 08:13:29;;;;;;;;;39.67;32.00;;;;;12.06;100.00;100901.25;6306539;20;3594009;-73
2022/10/27 08:15:58;;;;;;;;;31.33;31.00;;;;;11.91;100.00;100901.97;6273593;20;3594101;-71
2022/10/27 08:18:27;;;;;;;;;51.33;40.33;;;;;12.14;100.00;100910.75;6303499;20;3590948;-72
2022/10/27 08:20:57;;;;;;;;;40.67;34.33;;;;;12.04;100.00;100910.34;6275662;20;2853478;-73
2022/10/27 08:23:25;;;;;;;;;53.00;40.33;;;;;12.03;100.00;100916.66;6306573;20;3614970;-71
2022/10/27 08:25:56;;;;;;;;;52.33;42.33;;;;;12.10;100.00;100928.88;6271483;20;3629399;-70
2022/10/27 08:28:25;;;;;;;;;42.00;35.00;;;;;12.23;100.00;100921.09;6275533;20;3588828;-71
2022/10/27 08:30:54;;;;;;;;;42.33;33.67;;;;;12.26;100.00;100918.25;6274657;20;3602334;-72
2022/10/27 08:33:23;;;;;;;;;38.50;33.50;;;;;12.34;100.00;100937.59;6274818;20;2847324;-72
2022/10/27 08:35:52;;;;;;;;;45.67;36.00;;;;;12.43;100.00;100929.06;6273813;20;3599241;-71
2022/10/27 08:38:21;;;;;;;;;46.67;34.00;;;;;12.22;100.00;100930.13;6306201;20;3585807;-70
2022/10/27 08:41:11;;;;;;;;;42.00;34.00;;;;;12.28;100.00;100927.13;6274170;20;2846540;-73
2022/10/27 08:43:51;;;;;;;;;50.67;37.00;;;;;12.46;100.00;100937.00;6273833;20;3612874;-73
2022/10/27 08:46:46;;;;;;;;;53.75;38.75;;;;;12.36;100.00;100922.25;6307442;20;3633801;-70
2022/10/27 08:49:45;;;;;;;;;44.67;36.00;;;;;12.46;100.00;100915.44;6303632;20;2867020;-71
2022/10/27 08:52:43;;;;;;;;;51.00;37.33;;;;;12.70;100.00;100923.25;6303896;20;3614852;-72
2022/10/27 08:55:12;;;;;;;;;42.67;33.00;;;;;12.60;100.00;100917.44;6303689;20;3613811;-72
2022/10/27 08:57:56;;;;;;;;;45.33;34.00;;;;;12.40;100.00;100899.59;6305067;20;2855598;-73
2022/10/27 09:00:25;;;;;;;;;39.33;29.00;;;;;12.38;100.00;100906.88;6304622;20;3615927;-72
2022/10/27 09:03:49;;;;;;;;;34.33;30.33;;;;;12.49;100.00;100920.69;6275216;20;3578370;-71
2022/10/27 09:06:37;;;;;;;;;46.33;36.00;;;;;12.55;100.00;100914.09;6304824;20;3609636;-72
2022/10/27 09:09:37;;;;;;;;;52.75;39.00;;;;;12.59;100.00;100918.41;6306437;20;3644214;-70
2022/10/27 09:13:02;;;;;;;;;31.33;24.00;;;;;12.61;100.00;100918.31;6304295;20;3597403;-70
2022/10/27 09:15:50;;;;;;;;;47.00;36.33;;;;;12.59;100.00;100918.41;6277334;20;3607672;-71
2022/10/27 09:18:45;;;;;;;;;52.67;41.00;;;;;12.48;100.00;100913.56;6271399;20;3615876;-70
2022/10/27 09:21:22;;;;;;;;;46.00;36.67;;;;;12.61;100.00;100934.47;6303717;20;3607629;-71
2022/10/27 09:24:07;;;;;;;;;50.67;37.00;;;;;12.56;100.00;100936.53;6273547;20;3622166;-72
2022/10/27 09:26:37;;;;;;;;;48.67;39.00;;;;;12.70;100.00;100936.72;6303586;20;2873286;-72
2022/10/27 09:29:21;;;;;;;;;46.75;34.25;;;;;12.73;100.00;100933.88;6305373;20;4380615;-72
2022/10/27 09:32:22;;;;;;;;;46.67;36.67;;;;;12.92;100.00;100928.41;6313241;20;3609623;-72
2022/10/27 09:35:09;;;;;;;;;44.67;37.33;;;;;12.84;100.00;100926.09;6282179;20;3605485;-70
2022/10/27 09:37:41;;;;;;;;;51.33;37.00;;;;;12.87;100.00;100931.34;6276088;20;3625312;-71
2022/10/27 09:40:14;;;;;;;;;51.00;37.33;;;;;12.87;100.00;100928.63;6310214;20;3626405;-70
2022/10/27 09:42:44;;;;;;;;;54.33;42.67;;;;;13.09;100.00;100931.13;6277494;20;3612755;-72
2022/10/27 09:45:22;;;;;;;;;40.00;33.67;;;;;12.88;100.00;100932.22;6280099;20;3599255;-69
2022/10/27 09:47:59;;;;;;;;;48.50;36.00;;;;;12.76;100.00;100928.31;6275600;20;2856516;-70
2022/10/27 09:50:49;;;;;;;;;43.50;35.50;;;;;12.58;100.00;100913.94;6276949;20;2648294;-70
2022/10/27 09:53:50;;;;;;;;;39.50;33.50;;;;;12.60;100.00;100930.91;6278551;20;2834689;-71
2022/10/27 09:56:32;;;;;;;;;49.00;36.00;;;;;13.02;100.00;100928.81;6280196;20;3603419;-70
2022/10/27 09:59:05;;;;;;;;;48.67;38.00;;;;;12.75;100.00;100923.91;6276156;20;2873427;-72
2022/10/27 10:01:55;;;;;;;;;62.00;48.00;;;;;12.92;100.00;100928.41;6310998;20;3626272;-73
2022/10/27 10:04:32;;;;;;;;;83.75;73.25;;;;;12.72;100.00;100932.13;6282209;20;4426279;-72
2022/10/27 10:07:05;;;;;;;;;59.75;44.25;;;;;13.06;100.00;100933.09;6313952;20;3633659;-72
2022/10/27 10:09:38;;;;;;;;;47.67;36.00;;;;;13.11;100.00;100939.09;6313939;20;3606515;-72
2022/10/27 10:12:22;;;;;;;;;39.67;32.33;;;;;12.81;100.00;100936.19;6276240;20;3610729;-71
2022/10/27 10:15:11;;;;;;;;;46.33;36.00;;;;;13.18;100.00;100932.44;6309007;20;3604440;-70
2022/10/27 10:17:51;;;;;;;;;50.67;39.33;;;;;13.04;100.00;100930.50;6278930;20;3623642;-73
2022/10/27 10:20:38;;;;;;;;;46.33;37.00;;;;;13.11;100.00;100923.84;6312345;20;3590951;-72
2022/10/27 10:23:50;;;;;;;;;44.67;35.00;;;;;13.11;100.00;100922.94;6282317;20;3596149;-72
2022/10/27 10:26:28;;;;;;;;;42.33;35.67;;;;;12.95;100.00;100922.84;6280420;20;3595076;-71
2022/10/27 10:29:07;;;;;;;;;38.00;31.00;;;;;12.90;100.00;100917.72;6279326;20;3619040;-70
2022/10/27 10:31:38;;;;;;;;;49.50;34.25;;;;;12.92;100.00;100917.63;6276925;20;3626406;-71
2022/10/27 10:34:33;;;;;;;;;47.00;36.00;;;;;13.11;100.00;100925.63;6310378;20;3590945;-72
2022/10/27 10:37:04;;;;;;;;;43.33;36.00;;;;;13.16;100.00;100931.66;6282079;20;3591935;-73
2022/10/27 10:39:37;;;;;;;;;48.33;39.00;;;;;12.99;100.00;100928.97;6276458;20;3614868;-72
2022/10/27 10:42:09;;;;;;;;;58.67;45.00;;;;;12.98;100.00;100935.31;6307653;20;3628424;-71
2022/10/27 10:44:38;;;;;;;;;40.00;34.33;;;;;13.01;100.00;100927.94;6307943;20;3585829;-73
2022/10/27 10:47:27;;;;;;;;;63.33;50.00;;;;;13.03;100.00;100930.56;6275922;20;3627416;-72
2022/10/27 10:50:00;;;;;;;;;40.67;33.67;;;;;13.22;100.00;100928.66;6309844;20;3586739;-69
2022/10/27 10:52:51;;;;;;;;;40.67;32.33;;;;;12.99;100.00;100926.28;6274223;20;3606580;-70
2022/10/27 10:55:35;;;;;;;;;43.67;33.67;;;;;12.98;100.00;100924.53;6305598;20;3591926;-71
2022/10/27 10:58:05;;;;;;;;;51.33;39.33;;;;;13.02;100.00;100924.28;6275553;20;3608617;-73
2022/10/27 11:00:35;;;;;;;;;49.67;40.00;;;;;13.12;100.00;100928.25;6310398;20;3603900;-72
2022/10/27 11:03:14;;;;;;;;;35.50;31.00;;;;;12.94;100.00;100927.38;6278134;20;2833594;-72
2022/10/27 11:06:18;;;;;;;;;53.33;40.67;;;;;13.30;100.00;100918.38;6275710;20;3642005;-72
2022/10/27 11:09:10;;;;;;;;;52.33;38.00;;;;;13.28;100.00;100928.34;6272029;20;3626315;-72
2022/10/27 11:11:46;;;;;;;;;46.33;34.00;;;;;13.12;100.00;100920.16;6304753;20;3590985;-70
2022/10/27 11:14:18;;;;;;;;;44.67;35.00;;;;;13.26;100.00;100922.16;6273857;20;2854440;-69
2022/10/27 11:16:58;;;;;;;;;47.67;35.67;;;;;13.21;100.00;100916.09;6307948;20;3614872;-70
2022/10/27 11:19:36;;;;;;;;;41.00;33.33;;;;;13.38;100.00;100923.34;6276798;20;3610724;-71
2022/10/27 11:22:15;;;;;;;;;47.33;35.00;;;;;13.40;100.00;100918.72;6276817;20;3601352;-70
2022/10/27 11:24:59;;;;;;;;;47.67;36.33;;;;;13.38;100.00;100920.66;6272752;20;3597125;-69